TAF Text Data
IDs:
Format:
Raw Decoded Include METAR

Data at: 1339 UTC 25 Nov 2020

Region: TOP
KATL 251129Z 2512/2618 10008KT P6SM BKN012 OVC050
  TEMPO 2512/2514 OVC009
  FM251400 13008KT P6SM OVC015
  FM251600 15009KT P6SM OVC018
  FM252000 16008KT P6SM VCSH BKN040 BKN100
  FM260200 17008KT P6SM VCSH OVC018
  FM260700 19008KT 6SM -SHRA BR OVC006
  FM261500 25006KT P6SM BKN012 BKN050


KBOS 251122Z 2512/2618 32005KT P6SM OVC070
  FM251600 17009KT P6SM OVC035
  FM252100 26006KT P6SM OVC045
  FM260800 24003KT P6SM VCSH OVC030
  FM261100 14003KT 5SM -SHRA BR SCT005 OVC010


KBWI 251124Z 2512/2618 19004KT P6SM SCT200 BKN250
  FM260100 15004KT P6SM SCT025 BKN050
  FM260300 16004KT P6SM -SHRA SCT010 OVC050
  FM260500 18004KT 5SM -SHRA SCT010 OVC015 WS020/20035KT
  FM260900 19005KT 2SM -SHRA SCT003 OVC008 WS020/20035KT
  FM261100 18006KT 1SM -SHRA SCT003 OVC008


KCLE 251141Z 2512/2618 18010G18KT P6SM BKN090
  FM251400 18012KT 5SM -RA OVC025
  FM251700 18010G18KT 4SM RA OVC010
  TEMPO 2518/2521 2SM RA BR OVC008
  FM252200 17012G20KT 6SM BR VCSH OVC010
  FM260300 17010KT 4SM -SHRA OVC010
  FM260600 23008KT 5SM BR OVC010


KCLT 251249Z 2513/2618 04004KT P6SM SCT025 OVC035
  TEMPO 2513/2515 OVC025
  FM251600 16003KT P6SM BKN040
  PROB30 2605/2608 4SM -SHRA BR OVC025
  FM260800 19008KT P6SM VCSH OVC030
  FM261100 19007KT 6SM BR VCSH OVC014
  FM261500 22008KT P6SM BKN025


KCVG 251123Z 2512/2618 17011KT 3SM RA SCT025 OVC035 WS020/21040KT
  FM251400 17013KT 3SM RA SCT008 OVC015 WS020/21040KT
  FM251700 17014KT 6SM BR VCSH BKN008 OVC012
  FM252300 16013KT P6SM -SHRA OVC012
  FM260100 23016G22KT P6SM SCT012 OVC025
  FM260500 24014KT P6SM OVC012
  FM261100 26012KT P6SM OVC008


KDCA 251124Z 2512/2618 18007KT P6SM SCT200 BKN250
  FM251500 20010G21KT P6SM SCT035 BKN250
  FM252200 18007KT P6SM SCT025 BKN050
  FM260500 18006KT 6SM -SHRA SCT010 OVC015 WS020/19035KT
  FM261100 18007KT 1SM -SHRA SCT003 OVC010
  FM261500 21009KT P6SM -SHRA SCT003 BKN010


KDEN 251122Z 2512/2618 20010KT P6SM SKC
  FM251600 VRB05KT P6SM SKC
  FM251900 05007KT P6SM SCT220
  FM260100 21010KT P6SM SCT220
  FM261500 08008KT P6SM SCT070


KDFW 251120Z 2512/2618 31009KT P6SM FEW250
  FM260000 VRB02KT P6SM SKC
  FM260400 15009KT P6SM FEW250


KDTW 251128Z 2512/2618 16005KT 4SM -SHRA BR OVC025
  FM251400 18007KT 4SM -SHRA BR OVC015
  FM251600 18007KT 3SM -SHRA BR OVC007
  FM252000 15005KT 2SM -DZ BR OVC004
  FM260000 12003KT 3/4SM -SHRA BR VV003
  FM261000 25005KT 2SM BR OVC007
  FM261400 28010KT P6SM OVC015


KEWR 251125Z 2512/2618 10005KT P6SM SCT040 BKN100
  FM251300 19007KT P6SM BKN040
  FM251700 22010G19KT P6SM SCT040 BKN120
  FM252300 21006KT P6SM FEW020 BKN035
  FM260500 17004KT 5SM -RA BR BKN020 OVC060
  FM260800 15006KT 4SM -RA BR SCT008 OVC018
  FM261200 18010KT 2SM -RA BR OVC008


KFLL 251202Z 2512/2618 10015KT P6SM -SHRA BKN035
  FM251500 10015KT P6SM SCT035
  FM260200 10010KT P6SM FEW035 SCT250
  FM261300 11010KT P6SM SCT030


KIAD 251124Z 2512/2618 17005KT P6SM SCT200 BKN250
  FM251600 19010G20KT P6SM FEW200 SCT250
  FM260000 17006KT P6SM -SHRA SCT015 BKN050
  FM260300 18006KT 6SM -SHRA SCT008 OVC010 WS020/19035KT
  FM260800 18008KT 1SM -SHRA SCT003 OVC008 WS020/20040KT
  FM261500 21009KT P6SM -SHRA SCT008 BKN015


KIAH 251321Z 2513/2618 35007KT P6SM BKN050 BKN070
  FM251600 35009KT P6SM SCT050
  FM260000 01003KT P6SM FEW250
  FM261500 09006KT P6SM SCT050


KJFK 251125Z 2512/2618 18012KT P6SM BKN040
  FM251700 20012G18KT P6SM SCT040 BKN100
  FM252300 19007KT P6SM FEW025 BKN040
  FM260500 17005KT 6SM -RA BR BKN025 OVC060
  FM260800 16006KT 3SM -RA BR SCT008 OVC015
  FM261200 17012KT 2SM -RA BR OVC008


KLAS 251120Z 2512/2618 22006KT P6SM SKC
  FM251400 VRB05KT P6SM SKC
  FM251900 05007KT P6SM FEW250
  FM260200 22006KT P6SM FEW200
  FM261000 33009KT P6SM FEW100 FEW200
  FM261600 35013G20KT P6SM FEW100 FEW200


KLAX 251315Z 2513/2618 04005KT 1/4SM FG VV001
  TEMPO 2515/2517 3SM BR BKN001 BKN007
  FM251700 VRB03KT 6SM BR BKN012
  FM252000 24006KT P6SM BKN015
  FM252200 26010KT P6SM SCT015
  FM260800 VRB03KT P6SM FEW015
  FM261700 04005KT P6SM SKC


KLGA 251125Z 2512/2618 14007KT P6SM BKN040
  FM251700 21011G18KT P6SM SCT040 BKN100
  FM252300 22008KT P6SM FEW030 BKN040
  FM260500 18005KT P6SM -RA BKN025 OVC080
  FM260800 16008KT 3SM -RA BR SCT008 OVC015
  FM261200 17010KT 2SM -RA BR OVC008


KMCO 251120Z 2512/2618 08005KT P6SM FEW060
  FM251500 12009KT P6SM SCT050
  FM260100 12005KT P6SM SCT060


KMDW 251123Z 2512/2618 13006KT 1 1/2SM -DZ BR OVC004
  FM251500 09006KT 2SM RA BR OVC004
  FM252100 03006KT 3SM -SHRA BR OVC004
  FM260200 35006KT 5SM -DZ BR OVC005
  FM260600 30007KT 6SM BR OVC007
  FM261600 25009KT P6SM OVC010


KMEM 251245Z 2513/2618 18012G22KT P6SM SCT090 BKN100
  FM251800 24015G22KT P6SM SCT250
  FM252300 26009KT P6SM FEW250


KMIA 251202Z 2512/2618 07010KT P6SM -SHRA FEW008 SCT020 BKN035
  FM251500 10015KT P6SM SCT040
  FM260000 10006KT P6SM FEW035
  FM261400 10010KT P6SM SCT035


KMSP 251127Z 2512/2618 01007KT P6SM OVC008
  FM251600 00000KT P6SM OVC008
  FM252000 00000KT P6SM OVC015
  FM260700 16006KT P6SM BKN015
  FM261200 19008KT P6SM SCT020


KORD 251123Z 2512/2618 12006KT 1SM -DZ BR OVC004
  FM251500 09006KT 1 1/2SM RA BR OVC004
  FM252100 03006KT 3SM -SHRA BR OVC004
  FM260200 35006KT 5SM -DZ BR OVC005
  FM260600 30007KT 6SM BR OVC007
  FM261600 25009KT P6SM OVC010


KPDX 251132Z 2512/2612 16003KT P6SM -SHRA SCT020 BKN045 OVC070
  FM251400 19007KT P6SM -SHRA SCT020 BKN035 OVC060
  TEMPO 2514/2518 BKN020 BKN035
  FM252000 22008KT P6SM -SHRAGS SCT025 BKN040 BKN060
  FM260300 25005KT P6SM VCSH SCT025 BKN045
  FM260800 VRB03KT 5SM BR SCT004 BKN045


KPHL 251139Z 2512/2618 18006KT P6SM BKN210
  FM260000 18005KT P6SM BKN050
  FM260300 19006KT P6SM OVC025
  FM260600 18006KT 5SM -RA OVC025
  FM260900 18007KT 2SM RA OVC015
  FM261100 19007KT 2SM RA OVC010 WS020/19035KT


KPHX 251137Z 2512/2618 11005KT P6SM SKC
  FM252300 24004KT P6SM SKC
  FM260500 11006KT P6SM SKC


KPIT 251320Z 2513/2618 18005KT P6SM -RA BKN070 WS020/21030KT
  FM251800 17008KT P6SM OVC045
  FM252000 16007KT 4SM SHRA OVC025 WS020/20035KT
  FM261500 19007KT P6SM OVC035


KSAN 251132Z 2512/2618 VRB03KT P6SM OVC016
  FM251600 VRB04KT P6SM BKN020
  FM251700 27007KT P6SM SCT025
  FM260300 18003KT P6SM OVC025


KSEA 251122Z 2512/2618 18010KT P6SM VCSH SCT010 BKN020 OVC030
  FM252000 19006KT P6SM BKN025
  FM260100 13004KT P6SM OVC025
  FM260900 15004KT P6SM OVC015


KSFO 251155Z 2512/2618 29008KT 6SM BR BKN015 BKN035 WS020/35035KT
  TEMPO 2512/2516 3SM BR BKN008
  FM251800 29015G20KT P6SM FEW015
  FM252300 30020G27KT P6SM SKC
  FM260500 28015G20KT P6SM SKC
  FM261200 28011KT P6SM SKC


KSLC 251140Z 2512/2618 17010KT P6SM FEW200
  FM252000 30008KT P6SM FEW100 SCT180
  FM260300 33010G18KT P6SM VCSH SCT020 BKN035
  PROB30 2604/2607 5SM -SHRASN OVC030
  FM260700 33006KT P6SM FEW040 BKN070


KSTL 251121Z 2512/2618 13006KT P6SM BKN006
  FM251500 16005KT P6SM VCSH BKN015
  FM251800 26005KT 6SM -RA BR BKN011
  FM252100 27009KT P6SM VCSH BKN011
  FM260000 27008KT P6SM BKN011


KTPA 251120Z 2512/2618 VRB04KT P6SM FEW030 BKN070
  FM251400 12008KT P6SM SCT040
  FM251900 14006KT P6SM FEW025 SCT050
  FM260100 12005KT P6SM FEW040
  FM261400 15004KT P6SM FEW050